Time;durP1;ratioP1;P1;durP2;ratioP2;P2;SDS_P1;SDS_P2;PMS_P1;PMS_P2;Temp;Humidity;BMP_temperature;BMP_pressure;BME280_temperature;BME280_humidity;BME280_pressure;Samples;Min_cycle;Max_cycle;Signal;HPM_P1;HPM_P2
2023/04/20 00:01:31;;;;;;;805.22;193.98;;;;;;;12.93;50.30;100784.41;5124392;28;20385;-85
2023/04/20 00:03:56;;;;;;;809.77;194.77;;;;;;;13.05;50.20;100802.56;5091092;28;20391;-86
2023/04/20 00:06:24;;;;;;;816.17;198.50;;;;;;;12.98;50.36;100798.00;5090546;28;20488;-85
2023/04/20 00:08:49;;;;;;;804.57;193.83;;;;;;;13.01;50.35;100794.94;5092378;28;20439;-86
2023/04/20 00:11:15;;;;;;;805.07;194.03;;;;;;;13.00;50.41;100792.50;5092517;28;20375;-87
2023/04/20 00:13:41;;;;;;;820.65;198.77;;;;;;;12.98;50.55;100790.03;5094060;28;20477;-86
2023/04/20 00:16:07;;;;;;;819.90;199.80;;;;;;;12.99;50.38;100785.50;5091242;28;20462;-88
2023/04/20 00:18:33;;;;;;;819.43;198.70;;;;;;;13.01;50.62;100786.97;5092378;28;20402;-86
2023/04/20 00:20:58;;;;;;;820.55;198.55;;;;;;;12.95;50.83;100777.06;5089703;28;20750;-85
2023/04/20 00:23:24;;;;;;;818.67;197.47;;;;;;;12.93;50.87;100776.44;5087832;28;20398;-84
2023/04/20 00:25:50;;;;;;;823.27;199.47;;;;;;;12.95;50.97;100787.72;5080002;28;20367;-85
2023/04/20 00:28:16;;;;;;;828.87;202.27;;;;;;;12.92;51.04;100773.97;5074913;28;20405;-86
2023/04/20 00:30:41;;;;;;;829.67;201.97;;;;;;;12.93;51.08;100779.09;5075862;28;20378;-85
2023/04/20 00:33:06;;;;;;;826.55;201.07;;;;;;;12.99;50.92;100777.53;5075679;28;20374;-87
2023/04/20 00:35:32;;;;;;;830.10;201.77;;;;;;;12.90;51.30;100774.13;5074035;28;20387;-86
2023/04/20 00:37:57;;;;;;;826.17;201.43;;;;;;;12.92;51.38;100781.94;5074508;28;20452;-87
2023/04/20 00:40:23;;;;;;;830.57;202.73;;;;;;;12.97;51.45;100790.19;5077220;28;20399;-84
2023/04/20 00:42:48;;;;;;;829.17;201.93;;;;;;;12.92;51.56;100787.25;5098208;28;20462;-85
2023/04/20 00:45:14;;;;;;;827.07;200.17;;;;;;;12.88;51.97;100780.66;5087015;28;20375;-85
2023/04/20 00:47:39;;;;;;;821.83;200.07;;;;;;;12.84;52.02;100784.69;5076212;28;20371;-85
2023/04/20 00:50:06;;;;;;;832.40;202.68;;;;;;;12.88;51.73;100773.50;5073113;28;20371;-85
2023/04/20 00:52:32;;;;;;;825.85;200.50;;;;;;;12.93;52.02;100781.75;5074453;28;20399;-84
2023/04/20 00:54:58;;;;;;;824.15;199.43;;;;;;;12.89;52.14;100785.81;5074167;28;20370;-85
2023/04/20 00:57:25;;;;;;;825.73;200.13;;;;;;;12.89;52.25;100785.81;5075033;28;20375;-85
2023/04/20 00:59:50;;;;;;;836.38;204.23;;;;;;;12.83;52.15;100773.22;5097835;28;20390;-84
2023/04/20 01:02:17;;;;;;;831.67;202.90;;;;;;;12.97;52.02;100775.06;5083207;28;20375;-84
2023/04/20 01:04:44;;;;;;;834.13;203.55;;;;;;;12.98;52.01;100770.53;5074770;28;21089;-85
2023/04/20 01:07:09;;;;;;;832.38;203.13;;;;;;;13.01;52.12;100778.16;5073751;28;20863;-85
2023/04/20 01:09:38;;;;;;;831.67;202.63;;;;;;;13.01;52.09;100775.50;5073450;28;20394;-84
2023/04/20 01:12:04;;;;;;;832.35;203.25;;;;;;;13.07;51.94;100774.78;5072502;28;20383;-85
2023/04/20 01:14:29;;;;;;;825.28;200.00;;;;;;;13.09;51.85;100770.09;5075525;28;20406;-84
2023/04/20 01:16:55;;;;;;;826.28;201.00;;;;;;;13.05;52.18;100768.78;5082313;28;20359;-87
2023/04/20 01:19:20;;;;;;;794.87;190.70;;;;;;;13.12;51.94;100759.06;5098620;28;20378;-87
2023/04/20 01:21:46;;;;;;;788.50;189.57;;;;;;;13.07;52.17;100768.63;5098462;28;20379;-87
2023/04/20 01:24:12;;;;;;;799.97;192.85;;;;;;;13.15;51.97;100771.19;5091029;28;20399;-86
2023/04/20 01:26:38;;;;;;;796.17;190.60;;;;;;;13.11;52.13;100769.91;5082348;28;20386;-87
2023/04/20 01:29:03;;;;;;;793.37;190.07;;;;;;;13.07;51.99;100774.78;5080758;28;21087;-87
2023/04/20 01:31:29;;;;;;;794.93;191.90;;;;;;;13.17;52.10;100779.81;5074019;28;20955;-86
2023/04/20 01:33:55;;;;;;;792.23;190.40;;;;;;;13.22;51.73;100773.91;5072666;28;20375;-86
2023/04/20 01:36:21;;;;;;;801.40;193.23;;;;;;;13.10;52.20;100769.06;5073676;28;20384;-87
2023/04/20 01:38:47;;;;;;;811.55;195.20;;;;;;;13.16;52.06;100759.53;5073840;28;20371;-87
2023/04/20 01:41:12;;;;;;;799.33;192.80;;;;;;;13.22;51.99;100768.59;5078974;28;20379;-88
2023/04/20 01:43:38;;;;;;;810.22;195.65;;;;;;;13.23;51.99;100762.28;5082040;28;20928;-88
2023/04/20 01:46:05;;;;;;;817.33;197.40;;;;;;;13.28;51.93;100768.69;5106278;28;20379;-87
2023/04/20 01:48:30;;;;;;;805.20;194.25;;;;;;;13.22;51.84;100763.28;5072427;28;20367;-88
2023/04/20 01:50:56;;;;;;;812.63;196.63;;;;;;;13.25;51.84;100765.56;5070916;28;20402;-88
2023/04/20 01:53:22;;;;;;;823.25;199.32;;;;;;;13.23;51.89;100752.44;5072171;28;20402;-87
2023/04/20 01:55:48;;;;;;;812.80;196.43;;;;;;;13.28;51.87;100762.53;5072022;28;20447;-88
2023/04/20 01:58:14;;;;;;;815.67;197.60;;;;;;;13.24;51.59;100758.59;5074044;28;20401;-88
2023/04/20 02:00:40;;;;;;;812.70;196.90;;;;;;;13.21;51.67;100754.47;5074179;28;20423;-88
2023/04/20 02:03:05;;;;;;;814.58;197.05;;;;;;;13.17;52.05;100762.00;5080644;28;20383;-87
2023/04/20 02:05:31;;;;;;;814.85;197.52;;;;;;;13.11;52.11;100762.75;5077384;28;20395;-87
2023/04/20 02:07:56;;;;;;;820.27;199.87;;;;;;;13.10;51.89;100753.09;5078709;28;20374;-88
2023/04/20 02:10:22;;;;;;;814.38;196.57;;;;;;;13.04;52.23;100755.69;5082760;28;20385;-88
2023/04/20 02:12:49;;;;;;;812.95;196.40;;;;;;;12.97;52.34;100755.59;5078287;28;20371;-88
2023/04/20 02:15:14;;;;;;;809.30;195.15;;;;;;;12.96;52.60;100751.28;5077229;28;20371;-88
2023/04/20 02:17:40;;;;;;;808.83;195.07;;;;;;;12.95;52.67;100757.63;5076874;28;20379;-86
2023/04/20 02:20:09;;;;;;;817.70;198.50;;;;;;;12.91;52.61;100743.03;5077948;28;20375;-87
2023/04/20 02:22:36;;;;;;;815.27;197.40;;;;;;;12.95;52.50;100750.47;5079704;28;20383;-87
2023/04/20 02:25:05;;;;;;;817.00;197.23;;;;;;;13.01;52.55;100752.38;5125906;28;20414;-86
2023/04/20 02:27:31;;;;;;;812.13;196.43;;;;;;;12.93;52.82;100755.16;5086892;28;20453;-86
2023/04/20 02:29:58;;;;;;;814.28;196.85;;;;;;;12.97;52.64;100759.09;5075604;28;20897;-85
2023/04/20 02:32:24;;;;;;;807.27;194.80;;;;;;;12.94;52.96;100754.13;5076156;28;20377;-85
2023/04/20 02:34:49;;;;;;;807.03;194.67;;;;;;;12.95;52.60;100752.31;5073845;28;20379;-85
2023/04/20 02:37:15;;;;;;;783.85;187.27;;;;;;;12.95;52.94;100750.47;5075018;28;20443;-85
2023/04/20 02:39:40;;;;;;;779.97;186.50;;;;;;;12.91;52.93;100749.19;5075301;28;20378;-86
2023/04/20 02:42:05;;;;;;;783.78;187.48;;;;;;;12.86;53.21;100740.13;5087929;28;20383;-85
2023/04/20 02:44:31;;;;;;;783.27;186.97;;;;;;;12.89;53.04;100737.91;5085733;28;20415;-83
2023/04/20 02:46:56;;;;;;;778.45;186.10;;;;;;;12.97;53.08;100748.44;5076020;28;20379;-83
2023/04/20 02:49:22;;;;;;;784.70;187.57;;;;;;;12.94;53.19;100748.00;5074588;28;20385;-85
2023/04/20 02:51:47;;;;;;;785.50;188.33;;;;;;;13.01;53.10;100752.38;5075889;28;20447;-85
2023/04/20 02:54:13;;;;;;;779.00;185.80;;;;;;;13.05;52.92;100750.16;5080790;28;20395;-85
2023/04/20 02:56:38;;;;;;;779.13;186.37;;;;;;;13.01;52.95;100738.25;5076615;28;20403;-86
2023/04/20 02:59:04;;;;;;;787.80;188.65;;;;;;;12.99;53.24;100749.06;5080157;28;20401;-85
2023/04/20 03:01:29;;;;;;;792.53;190.57;;;;;;;13.01;52.94;100746.25;5097202;28;20367;-86
2023/04/20 03:03:55;;;;;;;796.80;192.30;;;;;;;13.12;52.94;100751.06;5077258;28;20417;-85
2023/04/20 03:06:20;;;;;;;803.20;194.53;;;;;;;13.18;53.08;100754.84;5079586;28;20391;-85
2023/04/20 03:08:46;;;;;;;798.67;198.40;;;;;;;13.06;53.08;100746.50;5111893;28;20377;-85
2023/04/20 03:11:11;;;;;;;792.47;190.33;;;;;;;13.13;53.13;100757.25;5077991;28;20918;-85
2023/04/20 03:13:36;;;;;;;795.23;191.50;;;;;;;13.09;53.28;100759.47;5077083;28;20898;-85
2023/04/20 03:16:03;;;;;;;787.23;189.57;;;;;;;13.04;53.57;100763.69;5077905;28;20390;-85
2023/04/20 03:18:29;;;;;;;790.30;190.13;;;;;;;12.98;53.70;100754.59;5093209;28;20379;-85
2023/04/20 03:20:55;;;;;;;775.60;186.20;;;;;;;12.93;53.80;100749.00;5092936;28;20432;-84
2023/04/20 03:23:20;;;;;;;779.60;187.73;;;;;;;13.00;53.78;100750.75;5075098;28;20898;-85
2023/04/20 03:25:46;;;;;;;798.17;193.53;;;;;;;12.92;53.97;100744.69;5075908;28;20447;-84
2023/04/20 03:28:12;;;;;;;802.25;196.93;;;;;;;12.93;53.93;100749.84;5076148;28;20451;-85
2023/04/20 03:30:37;;;;;;;805.42;196.63;;;;;;;13.05;53.94;100758.16;5075579;28;20442;-85
2023/04/20 03:33:03;;;;;;;814.03;200.17;;;;;;;13.03;53.78;100762.84;5090483;28;20395;-83
2023/04/20 03:35:28;;;;;;;811.38;200.52;;;;;;;12.91;54.16;100749.19;5091683;28;20392;-84
2023/04/20 03:37:54;;;;;;;810.77;200.97;;;;;;;12.97;54.16;100748.44;5093735;28;20389;-86
2023/04/20 03:40:20;;;;;;;812.50;200.87;;;;;;;13.04;53.96;100750.38;5092074;28;20502;-84
2023/04/20 03:42:46;;;;;;;814.58;202.23;;;;;;;13.11;53.68;100757.44;5082211;28;20378;-84
2023/04/20 03:45:11;;;;;;;812.50;201.07;;;;;;;13.10;53.69;100749.63;5092000;28;20891;-83
2023/04/20 03:47:37;;;;;;;805.45;196.90;;;;;;;13.13;53.50;100750.09;5092655;28;20390;-84
2023/04/20 03:50:03;;;;;;;800.43;195.33;;;;;;;13.15;53.69;100758.69;5092289;28;20400;-85
2023/04/20 03:52:28;;;;;;;792.03;192.65;;;;;;;13.13;53.72;100752.75;5092293;28;20389;-84
2023/04/20 03:54:54;;;;;;;788.63;189.32;;;;;;;13.01;54.18;100751.56;5095059;28;20384;-86
2023/04/20 03:57:19;;;;;;;788.43;190.63;;;;;;;13.03;54.31;100749.53;5094082;28;20385;-86
2023/04/20 03:59:45;;;;;;;785.30;188.03;;;;;;;13.09;53.90;100756.78;5092626;28;20377;-85
2023/04/20 04:02:12;;;;;;;777.90;187.50;;;;;;;13.04;54.18;100750.38;5095618;28;20393;-85
2023/04/20 04:04:38;;;;;;;794.40;191.90;;;;;;;13.06;54.41;100753.69;5095702;28;20409;-86
2023/04/20 04:07:03;;;;;;;793.33;191.50;;;;;;;13.06;54.37;100749.16;5095884;28;20397;-85
2023/04/20 04:09:29;;;;;;;789.53;191.07;;;;;;;13.22;53.96;100760.59;5113340;28;20409;-86
2023/04/20 04:11:54;;;;;;;788.30;189.33;;;;;;;13.25;54.10;100757.59;5103719;28;20404;-85
2023/04/20 04:14:20;;;;;;;779.35;187.02;;;;;;;13.26;54.03;100760.06;5098099;28;20409;-85
2023/04/20 04:16:45;;;;;;;777.00;187.10;;;;;;;13.41;53.92;100765.38;5099389;28;20979;-85
2023/04/20 04:19:11;;;;;;;784.07;188.47;;;;;;;13.50;53.79;100771.41;5100051;28;20444;-86
2023/04/20 04:22:17;;;;;;;776.17;187.45;;;;;;;13.47;53.61;100759.31;5025727;28;20397;-84
2023/04/20 04:24:42;;;;;;;786.40;191.10;;;;;;;13.47;53.58;100763.81;5033914;28;20415;-84
2023/04/20 04:27:09;;;;;;;786.00;190.00;;;;;;;13.49;53.35;100767.13;5050608;28;20384;-84
2023/04/20 04:29:37;;;;;;;781.67;189.30;;;;;;;13.49;53.38;100767.94;5048991;28;20407;-85
2023/04/20 04:32:04;;;;;;;774.25;187.15;;;;;;;13.49;53.45;100773.28;5039359;28;20411;-85
2023/04/20 04:34:30;;;;;;;772.47;186.02;;;;;;;13.57;53.35;100775.00;5028996;28;20479;-84
2023/04/20 04:36:56;;;;;;;772.30;187.30;;;;;;;13.59;53.06;100772.94;5028852;28;20877;-84
2023/04/20 04:39:22;;;;;;;774.33;188.27;;;;;;;13.60;53.10;100766.63;5029840;28;20916;-84
2023/04/20 04:41:48;;;;;;;778.50;188.13;;;;;;;13.59;53.56;100783.59;5027604;28;20407;-84
2023/04/20 04:44:15;;;;;;;776.00;188.00;;;;;;;13.51;53.68;100781.91;5026245;28;20397;-84
2023/04/20 04:46:42;;;;;;;770.95;186.85;;;;;;;13.49;53.62;100764.47;5027383;28;20403;-84
2023/04/20 04:49:08;;;;;;;770.78;186.45;;;;;;;13.61;53.55;100783.44;5027836;28;20388;-84
2023/04/20 04:51:34;;;;;;;766.08;183.80;;;;;;;13.50;53.52;100774.91;5028298;28;20415;-83
2023/04/20 04:54:01;;;;;;;754.90;180.38;;;;;;;13.61;53.50;100788.75;5029403;28;20391;-85
2023/04/20 04:56:27;;;;;;;757.45;181.30;;;;;;;13.60;53.44;100781.78;5028245;28;20396;-85
2023/04/20 04:58:52;;;;;;;761.90;183.20;;;;;;;13.57;53.80;100783.78;5030443;28;20400;-85
2023/04/20 05:01:18;;;;;;;761.42;183.15;;;;;;;13.55;53.75;100783.16;5028739;28;20444;-85
2023/04/20 05:03:43;;;;;;;760.30;181.87;;;;;;;13.55;54.00;100801.81;5027809;28;20399;-85
2023/04/20 05:06:09;;;;;;;765.15;183.63;;;;;;;13.46;54.04;100794.94;5028275;28;20402;-85
2023/04/20 05:08:35;;;;;;;751.88;180.07;;;;;;;13.47;54.27;100803.75;5028300;28;20388;-85
2023/04/20 05:11:00;;;;;;;762.80;183.00;;;;;;;13.54;54.01;100794.00;5025441;28;20403;-83
2023/04/20 05:13:26;;;;;;;764.03;183.93;;;;;;;13.66;53.85;100802.34;5025570;28;20380;-82
2023/04/20 05:15:51;;;;;;;761.90;183.03;;;;;;;13.68;53.90;100797.66;5025789;28;20375;-84
2023/04/20 05:18:16;;;;;;;764.58;183.23;;;;;;;13.74;53.56;100784.41;5024757;28;20736;-84
2023/04/20 05:20:42;;;;;;;761.03;182.77;;;;;;;13.95;53.48;100780.09;5025215;28;20414;-85
2023/04/20 05:23:08;;;;;;;758.30;181.80;;;;;;;14.10;52.95;100780.03;5025246;28;20416;-84
2023/04/20 05:25:33;;;;;;;759.67;182.53;;;;;;;14.32;52.89;100786.16;5025415;28;20384;-85
2023/04/20 05:27:59;;;;;;;759.17;183.70;;;;;;;14.54;52.64;100792.28;5025988;27;20414;-85
2023/04/20 05:30:25;;;;;;;760.67;186.10;;;;;;;14.66;52.22;100795.28;5026159;28;20443;-85
2023/04/20 05:32:50;;;;;;;756.42;189.18;;;;;;;14.74;52.34;100794.28;5017951;28;20399;-86
2023/04/20 05:35:16;;;;;;;765.33;191.40;;;;;;;14.79;52.05;100783.88;5014158;28;20376;-86
2023/04/20 05:37:41;;;;;;;761.45;190.10;;;;;;;14.93;52.12;100801.59;5013544;28;20395;-87
2023/04/20 05:40:08;;;;;;;767.83;191.98;;;;;;;14.98;51.99;100790.31;5014347;28;20385;-85
2023/04/20 05:42:33;;;;;;;754.70;185.27;;;;;;;15.04;51.83;100793.03;5015672;28;20380;-85
2023/04/20 05:44:59;;;;;;;780.03;214.17;;;;;;;15.17;51.72;100792.28;5025773;28;20384;-85
2023/04/20 05:47:26;;;;;;;768.87;201.20;;;;;;;15.27;51.61;100782.06;5022453;28;20921;-84
2023/04/20 05:49:52;;;;;;;775.90;200.80;;;;;;;15.36;51.36;100789.88;5020054;28;20749;-87
2023/04/20 05:52:18;;;;;;;749.58;184.70;;;;;;;15.23;51.05;100788.81;5014769;28;20376;-85
2023/04/20 05:54:43;;;;;;;733.33;174.60;;;;;;;14.96;51.35;100789.69;5033744;28;20472;-85
2023/04/20 05:57:09;;;;;;;766.30;189.67;;;;;;;14.77;51.94;100789.38;5014215;28;20383;-84
2023/04/20 05:59:35;;;;;;;753.33;182.65;;;;;;;14.72;51.76;100789.16;5013568;28;20728;-85
2023/04/20 06:02:00;;;;;;;755.50;182.10;;;;;;;14.67;51.82;100789.72;5013844;28;20897;-85
2023/04/20 06:04:26;;;;;;;757.90;184.27;;;;;;;14.78;51.54;100788.34;5021239;28;20380;-86
2023/04/20 06:06:51;;;;;;;758.63;184.97;;;;;;;14.81;51.48;100800.50;5016279;28;20461;-85
2023/04/20 06:09:17;;;;;;;754.77;182.57;;;;;;;14.80;51.44;100801.50;5014144;28;20380;-85
2023/04/20 06:11:42;;;;;;;759.88;184.57;;;;;;;14.79;51.39;100798.03;5033579;28;20420;-85
2023/04/20 06:14:10;;;;;;;750.80;181.03;;;;;;;14.82;51.68;100812.81;5014749;28;20451;-85
2023/04/20 06:16:36;;;;;;;750.03;182.30;;;;;;;14.97;51.31;100791.34;5014290;28;20377;-85
2023/04/20 06:19:02;;;;;;;751.00;182.67;;;;;;;15.07;51.03;100797.13;5015623;28;20444;-85
2023/04/20 06:21:27;;;;;;;759.25;185.60;;;;;;;15.22;50.78;100800.50;5017553;28;20491;-85
2023/04/20 06:23:53;;;;;;;760.58;186.18;;;;;;;15.38;50.63;100787.84;5087673;28;20406;-86
2023/04/20 06:26:18;;;;;;;760.20;184.97;;;;;;;15.53;50.46;100796.53;5013151;28;20391;-85
2023/04/20 06:28:46;;;;;;;770.30;190.75;;;;;;;15.71;50.09;100787.13;5011821;28;20399;-85
2023/04/20 06:31:11;;;;;;;775.97;196.48;;;;;;;15.76;49.72;100795.41;5014016;28;20404;-86
2023/04/20 06:33:37;;;;;;;749.90;180.93;;;;;;;15.76;49.57;100804.22;5013172;28;20430;-85
2023/04/20 06:36:06;;;;;;;753.60;179.57;;;;;;;15.79;49.39;100803.00;5014016;28;20468;-85
2023/04/20 06:38:32;;;;;;;758.38;182.43;;;;;;;16.01;48.91;100791.13;5015658;28;20408;-86
2023/04/20 06:41:00;;;;;;;760.63;183.80;;;;;;;16.16;48.72;100780.22;5016391;28;20848;-85
2023/04/20 06:43:26;;;;;;;761.33;183.55;;;;;;;16.27;48.10;100800.19;5019026;28;20381;-85
2023/04/20 06:45:51;;;;;;;758.37;182.87;;;;;;;16.39;47.95;100789.69;5014162;28;20395;-84
2023/04/20 06:48:17;;;;;;;759.47;182.13;;;;;;;16.57;48.28;118416.00;5016635;28;20464;-85
2023/04/20 06:50:49;;;;;;;760.67;182.63;;;;;;;16.65;46.93;100775.44;5014293;28;20399;-86
2023/04/20 06:53:16;;;;;;;752.33;180.35;;;;;;;16.77;46.30;100791.72;5011176;28;20467;-84
2023/04/20 06:55:41;;;;;;;748.10;178.90;;;;;;;16.70;45.76;100788.22;5014326;28;20380;-84
2023/04/20 06:58:07;;;;;;;746.20;178.52;;;;;;;16.68;45.94;100784.94;4987234;28;20423;-84
2023/04/20 07:00:32;;;;;;;751.17;180.15;;;;;;;16.64;45.48;100800.59;4983931;28;20391;-85
2023/04/20 07:02:58;;;;;;;748.60;178.33;;;;;;;16.61;45.37;100796.44;4979205;28;20399;-83
2023/04/20 07:05:23;;;;;;;735.10;175.93;;;;;;;16.61;46.28;100798.31;4980389;28;20400;-86
2023/04/20 07:07:50;;;;;;;760.07;181.17;;;;;;;16.49;46.03;100805.31;4981613;28;20383;-84
2023/04/20 07:10:15;;;;;;;754.50;181.43;;;;;;;16.63;46.07;100794.38;4976512;28;20411;-84
2023/04/20 07:12:41;;;;;;;757.63;182.38;;;;;;;16.71;45.98;100801.41;4975842;28;20926;-84
2023/04/20 07:15:08;;;;;;;761.83;182.52;;;;;;;16.94;45.03;100803.66;4976173;28;20751;-83
2023/04/20 07:17:34;;;;;;;760.07;182.07;;;;;;;16.90;45.35;100797.06;4975348;28;20391;-84
2023/04/20 07:20:09;;;;;;;754.97;181.20;;;;;;;16.93;45.50;100809.22;4973522;28;20386;-84
2023/04/20 07:22:38;;;;;;;759.92;182.93;;;;;;;16.93;45.70;100807.34;4974999;28;20388;-84
2023/04/20 07:25:07;;;;;;;753.22;180.40;;;;;;;16.96;45.27;100808.78;4974040;28;20384;-86
2023/04/20 07:27:37;;;;;;;750.97;181.05;;;;;;;17.25;45.79;100812.84;4976159;28;20724;-85
2023/04/20 07:30:05;;;;;;;759.88;182.63;;;;;;;17.38;45.01;100798.56;4974184;28;20380;-84
2023/04/20 07:32:31;;;;;;;779.53;189.90;;;;;;;17.49;44.93;100805.09;4975944;28;20399;-83
2023/04/20 07:34:57;;;;;;;778.65;188.57;;;;;;;17.51;44.69;100801.16;4993578;28;20367;-84
2023/04/20 07:37:23;;;;;;;867.23;224.37;;;;;;;17.47;45.21;100791.09;4990713;28;20391;-82
2023/04/20 07:39:50;;;;;;;804.77;198.93;;;;;;;17.62;44.40;100798.84;4984712;28;20392;-84
2023/04/20 07:42:16;;;;;;;771.47;189.80;;;;;;;17.34;44.54;100791.97;4976485;28;20380;-84
2023/04/20 07:44:42;;;;;;;613.35;148.85;;;;;;;17.54;44.79;100813.34;4973709;28;20453;-85
2023/04/20 07:47:07;;;;;;;604.80;145.67;;;;;;;17.40;44.59;100804.53;4975638;28;20391;-84
2023/04/20 07:49:36;;;;;;;617.50;148.67;;;;;;;17.61;44.45;100803.41;4975422;28;20414;-85
2023/04/20 07:52:02;;;;;;;626.05;150.63;;;;;;;17.71;43.76;100795.69;4973406;28;21150;-83
2023/04/20 07:54:27;;;;;;;628.13;150.65;;;;;;;17.80;43.18;100806.19;4975693;28;20403;-84
2023/04/20 07:56:55;;;;;;;634.33;151.67;;;;;;;17.60;42.95;100801.75;4972886;28;20379;-85
2023/04/20 07:59:20;;;;;;;633.50;151.52;;;;;;;17.51;43.26;100808.38;4979289;28;20411;-83
2023/04/20 08:01:46;;;;;;;643.28;152.77;;;;;;;17.39;43.46;100811.75;4972982;28;20384;-84
2023/04/20 08:04:12;;;;;;;659.90;156.43;;;;;;;17.19;43.59;100802.94;4973463;28;20872;-83
2023/04/20 08:06:37;;;;;;;664.77;158.03;;;;;;;17.72;43.43;100792.00;4973550;28;20395;-84
2023/04/20 08:09:03;;;;;;;663.77;157.80;;;;;;;18.05;43.27;100795.53;4974081;28;20379;-84
2023/04/20 08:11:28;;;;;;;669.57;158.70;;;;;;;18.20;42.58;100787.97;4973127;28;20401;-84
2023/04/20 08:13:54;;;;;;;664.05;157.63;;;;;;;18.24;42.74;100791.03;4972901;28;20517;-83
2023/04/20 08:16:19;;;;;;;661.33;157.93;;;;;;;18.39;42.68;100786.16;4976129;28;20392;-84
2023/04/20 08:18:45;;;;;;;661.10;158.07;;;;;;;18.40;42.34;100782.44;4978488;28;20391;-85
2023/04/20 08:21:10;;;;;;;666.73;158.57;;;;;;;18.49;42.02;100783.81;4976446;28;20411;-84
2023/04/20 08:23:36;;;;;;;651.28;156.07;;;;;;;18.75;41.78;100787.28;4975090;28;20494;-84
2023/04/20 08:26:03;;;;;;;660.77;157.53;;;;;;;18.63;41.70;100781.81;4974494;28;20402;-83
2023/04/20 08:28:28;;;;;;;658.60;157.55;;;;;;;18.74;41.55;100772.19;4973682;28;20469;-84
2023/04/20 08:30:55;;;;;;;652.08;154.98;;;;;;;18.66;41.52;100769.81;4973346;28;20396;-83
2023/04/20 08:33:21;;;;;;;653.73;155.80;;;;;;;18.93;41.45;100775.75;4975691;28;20452;-84
2023/04/20 08:35:49;;;;;;;649.15;155.55;;;;;;;18.86;41.18;100770.44;4978914;28;20380;-83
2023/04/20 08:38:14;;;;;;;663.20;157.95;;;;;;;18.87;41.06;100782.84;4976803;28;20392;-87
2023/04/20 08:40:39;;;;;;;671.67;159.73;;;;;;;18.84;41.14;100766.34;4975557;28;20473;-85
2023/04/20 08:43:05;;;;;;;679.00;161.83;;;;;;;18.70;41.14;100771.00;4975895;28;20411;-83
2023/04/20 08:45:31;;;;;;;689.65;163.63;;;;;;;18.93;40.81;100765.00;4975353;28;20439;-85
2023/04/20 08:48:04;;;;;;;697.87;166.53;;;;;;;18.86;41.56;100761.56;4974841;28;20392;-84
2023/04/20 08:50:30;;;;;;;706.33;169.35;;;;;;;19.36;41.29;100771.31;4976910;28;20472;-86
2023/04/20 08:52:56;;;;;;;681.20;162.75;;;;;;;19.75;41.29;100769.94;4977080;28;20391;-84
2023/04/20 08:55:22;;;;;;;726.95;175.40;;;;;;;19.82;40.40;100764.47;4979261;28;20388;-86
2023/04/20 08:57:48;;;;;;;728.37;176.63;;;;;;;19.85;40.80;100755.97;4979076;28;21265;-83
2023/04/20 09:00:14;;;;;;;735.42;177.45;;;;;;;19.65;39.84;100767.78;4974903;28;20379;-81
2023/04/20 09:02:55;;;;;;;758.67;185.48;;;;;;;19.76;40.69;100776.97;4973454;28;20386;-82
2023/04/20 09:05:28;;;;;;;795.03;197.15;;;;;;;19.99;41.21;100762.78;4974625;28;20396;-83
2023/04/20 09:07:57;;;;;;;799.70;199.07;;;;;;;19.99;40.36;100756.59;4978945;28;20380;-84
2023/04/20 09:10:23;;;;;;;798.90;198.82;;;;;;;20.03;39.70;100768.50;4984613;28;20395;-85
2023/04/20 09:12:50;;;;;;;769.03;188.57;;;;;;;19.78;39.39;100757.94;4983744;28;20388;-84
2023/04/20 09:15:29;;;;;;;773.17;189.83;;;;;;;19.79;39.62;100767.63;4975938;28;20417;-84
2023/04/20 09:17:56;;;;;;;781.77;192.83;;;;;;;19.59;39.50;100760.66;4993637;28;20942;-84
2023/04/20 09:20:32;;;;;;;786.28;194.75;;;;;;;19.62;39.79;100754.00;5024724;28;20450;-84
2023/04/20 09:23:10;;;;;;;794.05;195.57;;;;;;;19.37;39.71;100764.88;5038197;28;20379;-84
2023/04/20 09:25:36;;;;;;;793.72;197.20;;;;;;;19.57;40.14;100748.47;4988120;28;20387;-84
2023/04/20 09:28:01;;;;;;;817.90;205.27;;;;;;;19.92;39.58;100758.56;5015095;28;20380;-83
2023/04/20 09:30:39;;;;;;;823.65;206.50;;;;;;;20.17;39.39;100755.66;4982979;28;20423;-84
2023/04/20 09:33:07;;;;;;;829.07;209.63;;;;;;;20.36;39.01;100735.63;4977137;28;20762;-83
2023/04/20 09:35:33;;;;;;;841.63;213.60;;;;;;;20.55;39.22;100736.34;4985366;28;20431;-83
2023/04/20 09:37:59;;;;;;;857.47;220.98;;;;;;;20.71;38.57;100732.16;4973995;28;20380;-84
2023/04/20 09:40:25;;;;;;;850.22;217.52;;;;;;;20.77;37.29;100736.56;4976744;28;20391;-83
2023/04/20 09:42:53;;;;;;;863.13;222.57;;;;;;;20.81;37.25;100740.44;4980643;28;20486;-83
2023/04/20 09:45:20;;;;;;;874.83;227.93;;;;;;;20.97;38.25;100729.97;4990697;28;20379;-83
2023/04/20 09:47:46;;;;;;;884.85;232.50;;;;;;;21.25;37.93;100742.66;4977844;28;20393;-84
2023/04/20 09:50:12;;;;;;;887.38;233.32;;;;;;;21.04;35.88;100733.34;4975693;28;20387;-83
2023/04/20 09:52:38;;;;;;;887.33;233.65;;;;;;;20.87;35.63;100730.59;5005581;28;20422;-84
2023/04/20 09:55:08;;;;;;;920.00;247.50;;;;;;;21.07;35.85;100740.13;4973964;28;20388;-83
2023/04/20 09:57:34;;;;;;;953.25;263.63;;;;;;;20.98;36.68;100728.94;4973886;28;20383;-83
2023/04/20 10:00:00;;;;;;;1280.03;412.90;;;;;;;20.64;37.17;100730.66;4973911;28;20437;-84
2023/04/20 10:02:27;;;;;;;1261.45;393.48;;;;;;;20.67;37.53;100719.38;4974005;28;20836;-82
2023/04/20 10:04:57;;;;;;;1287.40;404.60;;;;;;;20.28;37.63;100727.94;5008894;28;20411;-83
2023/04/20 10:07:24;;;;;;;1173.22;357.17;;;;;;;20.30;37.88;100719.63;4976347;28;20894;-83
2023/04/20 10:10:11;;;;;;;1140.82;343.65;;;;;;;20.29;37.50;100734.13;4974991;28;20387;-82
2023/04/20 10:12:52;;;;;;;1134.50;346.10;;;;;;;20.53;37.90;100722.31;4973997;28;20436;-82
2023/04/20 10:15:20;;;;;;;1089.70;321.30;;;;;;;20.83;37.59;100712.44;4975451;28;20410;-82
2023/04/20 10:17:46;;;;;;;1135.10;341.52;;;;;;;20.97;36.85;100720.00;4974677;28;20387;-83
2023/04/20 10:20:19;;;;;;;1077.68;317.35;;;;;;;20.67;36.75;100697.81;5006816;28;20423;-82
2023/04/20 10:22:45;;;;;;;1019.72;290.92;;;;;;;20.80;37.13;100709.16;4976117;28;20466;-84
2023/04/20 10:25:19;;;;;;;1028.30;293.10;;;;;;;20.56;37.40;100708.38;4975273;28;20384;-84
2023/04/20 10:27:57;;;;;;;1057.10;306.27;;;;;;;20.48;37.71;100707.91;4976639;28;20387;-83
2023/04/20 10:30:24;;;;;;;1081.32;318.08;;;;;;;20.37;37.49;100707.69;4975584;28;20407;-82
2023/04/20 10:33:05;;;;;;;1066.88;313.17;;;;;;;20.60;37.67;100712.22;4975377;28;20421;-81
2023/04/20 10:35:53;;;;;;;1053.00;305.42;;;;;;;20.95;37.84;100702.44;4974858;28;20390;-82
2023/04/20 10:38:34;;;;;;;1024.13;292.08;;;;;;;21.17;37.43;100699.91;4976040;28;20486;-83
2023/04/20 10:41:10;;;;;;;1055.18;309.23;;;;;;;21.30;38.30;100707.72;4976583;28;20895;-82
2023/04/20 10:43:40;;;;;;;1065.82;314.20;;;;;;;21.48;37.95;100709.41;4974065;28;20395;-83
2023/04/20 10:46:20;;;;;;;1081.00;321.23;;;;;;;21.50;36.85;100699.19;4990650;28;20380;-84
2023/04/20 10:48:55;;;;;;;1117.30;338.33;;;;;;;21.31;37.14;100703.13;4991768;28;20384;-84
2023/04/20 10:51:22;;;;;;;1115.80;335.48;;;;;;;21.21;36.58;100698.34;4990876;28;20498;-84
2023/04/20 10:53:58;;;;;;;1094.20;326.40;;;;;;;21.16;36.38;100699.09;4978412;28;20388;-83